Time;durP1;ratioP1;P1;durP2;ratioP2;P2;SDS_P1;SDS_P2;PMS_P1;PMS_P2;Temp;Humidity;BMP_temperature;BMP_pressure;BME280_temperature;BME280_humidity;BME280_pressure;Samples;Min_cycle;Max_cycle;Signal;HPM_P1;HPM_P2
2022/04/25 00:01:44;;;;;;;1.80;1.00;;;10.00;99.90;;;;;;4890814;29;20680;-72
2022/04/25 00:04:11;;;;;;;1.13;0.82;;;10.00;99.90;;;;;;4893871;29;20040;-71
2022/04/25 00:06:36;;;;;;;1.73;1.08;;;10.10;99.90;;;;;;4886318;29;20045;-73
2022/04/25 00:09:04;;;;;;;1.03;0.80;;;10.00;99.90;;;;;;4893852;29;20087;-75
2022/04/25 00:11:32;;;;;;;0.50;0.40;;;10.00;99.90;;;;;;4886236;29;20442;-72
2022/04/25 00:13:57;;;;;;;0.50;0.50;;;9.90;99.90;;;;;;4892430;29;20028;-72
2022/04/25 00:16:24;;;;;;;0.40;0.40;;;10.00;99.90;;;;;;4891164;29;20039;-71
2022/04/25 00:18:50;;;;;;;1.52;0.40;;;10.00;99.90;;;;;;4894806;29;20031;-72
2022/04/25 00:21:17;;;;;;;;;;;9.90;99.90;;;;;;4888125;29;20096;-71
2022/04/25 00:23:43;;;;;;;0.38;0.38;;;10.00;99.90;;;;;;4887296;29;19911;-71
2022/04/25 00:26:09;;;;;;;0.20;0.20;;;10.00;99.90;;;;;;4893250;29;20036;-71
2022/04/25 00:28:35;;;;;;;3.00;0.43;;;9.90;99.90;;;;;;4887647;29;20054;-76
2022/04/25 00:31:01;;;;;;;0.43;0.20;;;9.90;99.90;;;;;;4889723;29;20052;-72
2022/04/25 00:33:27;;;;;;;0.33;0.33;;;9.90;99.90;;;;;;4886846;29;20285;-71
2022/04/25 00:35:53;;;;;;;0.20;0.10;;;9.90;99.90;;;;;;4884191;29;20024;-71
2022/04/25 00:38:19;;;;;;;0.10;0.10;;;9.90;99.90;;;;;;4889780;29;20028;-72
2022/04/25 00:40:44;;;;;;;0.80;0.40;;;9.90;99.90;;;;;;4889337;29;20107;-75
2022/04/25 00:43:10;;;;;;;1.13;0.20;;;9.90;99.90;;;;;;4898890;29;20032;-72
2022/04/25 00:45:36;;;;;;;0.30;0.20;;;9.90;99.90;;;;;;4889607;29;20135;-72
2022/04/25 00:48:02;;;;;;;0.10;0.10;;;9.90;99.90;;;;;;4892964;29;20072;-73
2022/04/25 00:50:29;;;;;;;0.10;0.10;;;9.90;99.90;;;;;;4889520;29;20865;-72
2022/04/25 00:52:55;;;;;;;0.10;0.10;;;9.90;99.90;;;;;;4894013;29;20032;-76
2022/04/25 00:55:20;;;;;;;0.10;0.10;;;9.90;99.90;;;;;;4892283;29;20024;-76
2022/04/25 00:57:47;;;;;;;0.13;0.13;;;9.90;99.90;;;;;;4885153;29;20078;-73
2022/04/25 01:00:14;;;;;;;0.17;0.17;;;9.90;99.90;;;;;;4893292;29;20024;-72
2022/04/25 01:02:40;;;;;;;0.08;0.08;;;9.90;99.90;;;;;;4886553;29;20033;-76
2022/04/25 01:05:08;;;;;;;0.25;0.20;;;10.00;99.90;;;;;;4893087;29;20802;-71
2022/04/25 01:07:35;;;;;;;0.10;0.10;;;10.00;99.90;;;;;;4891624;29;20036;-71
2022/04/25 01:10:03;;;;;;;0.10;0.10;;;10.10;99.90;;;;;;4885729;29;20462;-72
2022/04/25 01:12:29;;;;;;;0.20;0.20;;;10.10;99.90;;;;;;4892004;29;20073;-71
2022/04/25 01:15:07;;;;;;;0.20;0.10;;;10.20;99.90;;;;;;4893852;29;20048;-71
2022/04/25 01:17:34;;;;;;;0.10;0.10;;;10.30;99.90;;;;;;4884575;29;20052;-71
2022/04/25 01:19:59;;;;;;;0.10;0.10;;;10.30;99.90;;;;;;4887136;29;20032;-71
2022/04/25 01:22:32;;;;;;;0.03;0.00;;;10.30;99.90;;;;;;4889295;29;20573;-71
2022/04/25 01:27:45;;;;;;;0.55;0.10;;;10.50;99.90;;;;;;4888619;29;20035;-71
2022/04/25 01:30:11;;;;;;;0.10;0.10;;;10.50;99.90;;;;;;4891081;29;20777;-70
2022/04/25 01:32:39;;;;;;;0.00;0.00;;;10.60;99.90;;;;;;4888757;29;20402;-71
2022/04/25 01:35:06;;;;;;;0.03;0.00;;;10.60;99.90;;;;;;4886672;29;20029;-71
2022/04/25 01:37:32;;;;;;;0.10;0.10;;;10.70;99.90;;;;;;4889445;29;20016;-70
2022/04/25 01:39:58;;;;;;;0.00;0.00;;;10.70;99.90;;;;;;4886272;29;20028;-71
2022/04/25 01:42:24;;;;;;;0.00;0.00;;;10.70;99.90;;;;;;4891302;29;20447;-71
2022/04/25 01:44:51;;;;;;;0.20;0.10;;;10.70;99.90;;;;;;4893820;29;20477;-71
2022/04/25 01:47:18;;;;;;;0.45;0.10;;;10.80;99.90;;;;;;4891567;29;20047;-71
2022/04/25 01:49:44;;;;;;;0.22;0.10;;;10.80;99.90;;;;;;4884939;29;20037;-70
2022/04/25 01:52:28;;;;;;;0.10;0.10;;;10.80;99.90;;;;;;4892215;29;20032;-71
2022/04/25 01:54:55;;;;;;;0.10;0.10;;;10.80;99.90;;;;;;4892087;29;20080;-71
2022/04/25 01:57:21;;;;;;;0.60;0.13;;;10.80;99.90;;;;;;4888892;29;20056;-70
2022/04/25 01:59:47;;;;;;;;;;;10.70;99.90;;;;;;4880715;29;20131;-71
2022/04/25 02:02:14;;;;;;;0.10;0.05;;;10.70;99.90;;;;;;4890129;29;19926;-70
2022/04/25 02:04:41;;;;;;;0.17;0.10;;;10.70;99.90;;;;;;4885373;29;20057;-71
2022/04/25 02:07:09;;;;;;;0.10;0.10;;;10.60;99.90;;;;;;4890285;29;20039;-70
2022/04/25 02:09:36;;;;;;;0.10;0.10;;;10.60;99.90;;;;;;4883425;29;20039;-71
2022/04/25 02:12:03;;;;;;;0.00;0.00;;;10.50;99.90;;;;;;4893623;29;20899;-70
2022/04/25 02:14:29;;;;;;;;;;;10.50;99.90;;;;;;4892677;29;20115;-71
2022/04/25 02:16:58;;;;;;;0.10;0.10;;;10.50;99.90;;;;;;4904831;29;19914;-71
2022/04/25 02:19:25;;;;;;;0.35;0.10;;;10.50;99.90;;;;;;4894690;29;20111;-70
2022/04/25 02:21:51;;;;;;;0.30;0.15;;;10.50;99.90;;;;;;4888054;29;20207;-71
2022/04/25 02:24:19;;;;;;;0.43;0.10;;;10.50;99.90;;;;;;4889594;29;20167;-70
2022/04/25 02:26:46;;;;;;;0.10;0.10;;;10.50;99.90;;;;;;4894318;29;20155;-70
2022/04/25 02:29:14;;;;;;;0.10;0.10;;;10.50;99.90;;;;;;4890441;29;20035;-70
2022/04/25 02:31:42;;;;;;;0.03;0.03;;;10.50;99.90;;;;;;4887484;29;20020;-72
2022/04/25 02:34:09;;;;;;;0.20;0.10;;;10.60;99.90;;;;;;4888795;29;20028;-71
2022/04/25 02:36:35;;;;;;;;;;;10.60;99.90;;;;;;4893186;29;20008;-70
2022/04/25 02:39:01;;;;;;;0.10;0.10;;;10.60;99.90;;;;;;4889316;29;19915;-70
2022/04/25 02:41:27;;;;;;;0.10;0.10;;;10.60;99.90;;;;;;4891222;29;20070;-70
2022/04/25 02:43:52;;;;;;;0.10;0.10;;;10.60;99.90;;;;;;4890999;29;20781;-71
2022/04/25 02:46:19;;;;;;;0.40;0.20;;;10.60;99.90;;;;;;4891140;29;20032;-70
2022/04/25 02:48:45;;;;;;;;;;;10.70;99.90;;;;;;4892113;29;20035;-71
2022/04/25 02:51:15;;;;;;;0.10;0.10;;;10.70;99.90;;;;;;4890428;29;19910;-70
2022/04/25 02:53:42;;;;;;;0.10;0.10;;;10.60;99.90;;;;;;4891223;29;20019;-71
2022/04/25 02:56:08;;;;;;;0.13;0.10;;;10.60;99.90;;;;;;4909022;29;20156;-71
2022/04/25 02:58:35;;;;;;;0.47;0.30;;;10.60;99.90;;;;;;4892754;29;20378;-70
2022/04/25 03:01:04;;;;;;;0.40;0.10;;;10.50;99.90;;;;;;4908762;29;20055;-71
2022/04/25 03:03:32;;;;;;;0.30;0.10;;;10.50;99.90;;;;;;4898534;29;20119;-70
2022/04/25 03:06:00;;;;;;;0.28;0.28;;;10.50;99.90;;;;;;4893985;29;20033;-70
2022/04/25 03:08:26;;;;;;;0.47;0.20;;;10.60;99.90;;;;;;4899417;29;20706;-71
2022/04/25 03:10:52;;;;;;;0.50;0.50;;;10.50;99.90;;;;;;4888622;29;20024;-73
2022/04/25 03:13:19;;;;;;;0.75;0.13;;;10.50;99.90;;;;;;4896484;29;20257;-71
2022/04/25 03:15:47;;;;;;;0.73;0.20;;;10.50;99.90;;;;;;4897285;29;20028;-70
2022/04/25 03:18:18;;;;;;;0.10;0.10;;;10.50;99.90;;;;;;4909382;29;20029;-75
2022/04/25 03:20:48;;;;;;;0.52;0.47;;;10.50;99.90;;;;;;4889351;29;20024;-72
2022/04/25 03:23:14;;;;;;;0.50;0.10;;;10.50;99.90;;;;;;4895438;29;20371;-72
2022/04/25 03:25:40;;;;;;;0.10;0.10;;;10.50;99.90;;;;;;4890019;29;20123;-71
2022/04/25 03:28:06;;;;;;;0.10;0.10;;;10.50;99.90;;;;;;4887089;29;20843;-72
2022/04/25 03:30:32;;;;;;;0.10;0.10;;;10.50;99.90;;;;;;4891786;29;20035;-72
2022/04/25 03:32:59;;;;;;;0.85;0.10;;;10.40;99.90;;;;;;4903167;29;20532;-71
2022/04/25 03:35:25;;;;;;;0.10;0.10;;;10.40;99.90;;;;;;4890937;29;20063;-74
2022/04/25 03:37:52;;;;;;;0.45;0.20;;;10.40;99.90;;;;;;4889527;29;20137;-71
2022/04/25 03:40:18;;;;;;;;;;;10.40;99.90;;;;;;4894105;29;20032;-71
2022/04/25 03:42:45;;;;;;;0.15;0.15;;;10.40;99.90;;;;;;4904290;29;19922;-71
2022/04/25 03:45:15;;;;;;;0.10;0.10;;;10.40;99.90;;;;;;4894054;29;20567;-72
2022/04/25 03:47:41;;;;;;;0.25;0.20;;;10.40;99.90;;;;;;4886438;29;20036;-72
2022/04/25 03:50:08;;;;;;;0.10;0.10;;;10.30;99.90;;;;;;4906076;29;20084;-71
2022/04/25 03:52:38;;;;;;;0.10;0.10;;;10.30;99.90;;;;;;4893536;29;20028;-71
2022/04/25 03:57:51;;;;;;;0.10;0.10;;;10.30;99.90;;;;;;4886905;29;20089;-71
2022/04/25 04:00:17;;;;;;;0.10;0.10;;;10.30;99.90;;;;;;4898761;29;20039;-71
2022/04/25 04:02:43;;;;;;;0.30;0.20;;;10.30;99.90;;;;;;4888372;29;20028;-73
2022/04/25 04:05:10;;;;;;;0.87;0.20;;;10.30;99.90;;;;;;4893780;29;20052;-71
2022/04/25 04:07:36;;;;;;;0.17;0.10;;;10.30;99.90;;;;;;4887934;29;20415;-72
2022/04/25 04:10:02;;;;;;;0.40;0.20;;;10.30;99.90;;;;;;4887093;29;20064;-72
2022/04/25 04:12:31;;;;;;;0.10;0.10;;;10.30;99.90;;;;;;4891921;29;20029;-72
2022/04/25 04:14:58;;;;;;;0.65;0.10;;;10.30;99.90;;;;;;4887112;29;21213;-73
2022/04/25 04:17:25;;;;;;;0.10;0.10;;;10.40;99.90;;;;;;4890963;29;20111;-72
2022/04/25 04:19:53;;;;;;;;;;;10.40;99.90;;;;;;4892273;29;20514;-72
2022/04/25 04:22:22;;;;;;;0.10;0.10;;;10.40;99.90;;;;;;4896844;29;19970;-74
2022/04/25 04:24:49;;;;;;;0.10;0.10;;;10.40;99.90;;;;;;4897780;29;20119;-71
2022/04/25 04:27:15;;;;;;;0.38;0.30;;;10.40;99.90;;;;;;4894148;29;20032;-70
2022/04/25 04:29:42;;;;;;;1.45;0.10;;;10.60;99.90;;;;;;4891226;29;20036;-71
2022/04/25 04:32:08;;;;;;;0.05;0.05;;;10.70;99.90;;;;;;4895927;29;20035;-71
2022/04/25 04:34:36;;;;;;;0.22;0.13;;;10.70;99.90;;;;;;4893212;29;20016;-70
2022/04/25 04:37:03;;;;;;;0.95;0.10;;;10.70;99.90;;;;;;4891377;29;20212;-71
2022/04/25 04:39:31;;;;;;;0.43;0.20;;;10.70;99.90;;;;;;4882591;29;20032;-71
2022/04/25 04:41:57;;;;;;;0.40;0.15;;;10.70;99.90;;;;;;4891069;29;20386;-71
2022/04/25 04:44:23;;;;;;;0.00;0.00;;;10.70;99.90;;;;;;4900930;29;20037;-71
2022/04/25 04:46:49;;;;;;;0.47;0.10;;;10.70;99.90;;;;;;4897841;29;20896;-71
2022/04/25 04:49:16;;;;;;;2.00;0.20;;;10.70;99.90;;;;;;4886636;29;20638;-71
2022/04/25 04:51:43;;;;;;;0.20;0.10;;;10.70;99.90;;;;;;4889586;29;20690;-71
2022/04/25 04:54:10;;;;;;;0.30;0.05;;;10.70;99.90;;;;;;4889361;29;20040;-72
2022/04/25 04:56:35;;;;;;;;;;;10.80;99.90;;;;;;4896511;29;20099;-71
2022/04/25 04:59:03;;;;;;;0.30;0.20;;;10.80;99.90;;;;;;4886828;29;19907;-72
2022/04/25 05:01:29;;;;;;;0.10;0.10;;;10.80;99.90;;;;;;4899370;29;20115;-72
2022/04/25 05:03:58;;;;;;;0.10;0.10;;;10.90;99.90;;;;;;4889280;29;20027;-71
2022/04/25 05:06:27;;;;;;;0.10;0.10;;;10.90;99.90;;;;;;4890254;29;20032;-71
2022/04/25 05:08:56;;;;;;;0.20;0.20;;;10.90;99.90;;;;;;4902314;29;20569;-71
2022/04/25 05:11:22;;;;;;;0.47;0.20;;;11.00;99.90;;;;;;4885838;29;20024;-71
2022/04/25 05:13:49;;;;;;;1.00;0.20;;;11.00;99.90;;;;;;4897648;29;20111;-72
2022/04/25 05:16:17;;;;;;;0.20;0.20;;;11.00;99.90;;;;;;4887981;29;20107;-72
2022/04/25 05:18:44;;;;;;;1.55;0.15;;;11.00;99.90;;;;;;4889697;29;20027;-73
2022/04/25 05:21:12;;;;;;;0.30;0.20;;;11.00;99.90;;;;;;4883131;29;20076;-73
2022/04/25 05:23:38;;;;;;;0.17;0.17;;;11.00;99.90;;;;;;4889156;29;20017;-73
2022/04/25 05:26:03;;;;;;;0.17;0.17;;;11.00;99.90;;;;;;4895129;29;20389;-72
2022/04/25 05:28:32;;;;;;;0.10;0.10;;;11.10;99.90;;;;;;4884354;29;20032;-72
2022/04/25 05:30:58;;;;;;;0.47;0.22;;;11.10;99.90;;;;;;4897214;29;20040;-73
2022/04/25 05:33:24;;;;;;;;;;;11.10;99.90;;;;;;4893924;29;20055;-71
2022/04/25 05:35:49;;;;;;;0.20;0.20;;;11.10;99.90;;;;;;4903816;29;20639;-71
2022/04/25 05:38:15;;;;;;;0.40;0.40;;;11.20;99.90;;;;;;4886699;29;20403;-71
2022/04/25 05:40:48;;;;;;;1.73;0.30;;;11.40;99.90;;;;;;4889819;29;20024;-71
2022/04/25 05:43:17;;;;;;;0.40;0.30;;;11.50;99.90;;;;;;4895777;29;20032;-71
2022/04/25 05:45:46;;;;;;;0.20;0.20;;;11.70;99.90;;;;;;4886189;29;20416;-71
2022/04/25 05:53:39;;;;;;;0.52;0.38;;;12.30;99.90;;;;;;4889653;29;20493;-71
2022/04/25 05:56:05;;;;;;;1.43;0.40;;;12.50;99.90;;;;;;4905865;29;20029;-71
2022/04/25 05:58:31;;;;;;;1.17;0.47;;;12.60;99.90;;;;;;4893116;29;20591;-71
2022/04/25 06:00:57;;;;;;;0.57;0.47;;;12.60;99.90;;;;;;4905042;29;20892;-71
2022/04/25 06:03:22;;;;;;;0.20;0.20;;;12.70;99.90;;;;;;4896398;29;20028;-71
2022/04/25 06:05:48;;;;;;;0.20;0.20;;;12.60;99.90;;;;;;4891245;29;20025;-71
2022/04/25 06:08:14;;;;;;;1.13;0.50;;;12.60;99.90;;;;;;4892816;29;20061;-71
2022/04/25 06:10:40;;;;;;;0.37;0.30;;;12.40;99.90;;;;;;4889076;29;20028;-71
2022/04/25 06:13:07;;;;;;;0.65;0.47;;;12.20;99.90;;;;;;4893623;29;20024;-71
2022/04/25 06:15:33;;;;;;;0.40;0.40;;;12.30;99.90;;;;;;4895206;29;20052;-71
2022/04/25 06:17:59;;;;;;;0.55;0.55;;;12.20;99.90;;;;;;4903573;29;20709;-71
2022/04/25 06:20:25;;;;;;;0.37;0.37;;;12.20;99.90;;;;;;4893607;29;20032;-71
2022/04/25 06:22:59;;;;;;;0.45;0.40;;;12.30;99.90;;;;;;4884644;29;20286;-72
2022/04/25 06:25:26;;;;;;;0.93;0.52;;;12.50;99.90;;;;;;4890187;29;20119;-71
2022/04/25 06:27:52;;;;;;;0.55;0.55;;;12.50;99.90;;;;;;4894356;29;20028;-71
2022/04/25 06:30:23;;;;;;;0.50;0.40;;;12.60;99.90;;;;;;4889458;29;20390;-71
2022/04/25 06:32:51;;;;;;;0.60;0.50;;;12.60;99.90;;;;;;4890251;29;20442;-71
2022/04/25 06:35:16;;;;;;;0.68;0.65;;;12.60;99.90;;;;;;4893625;29;20100;-71
2022/04/25 06:37:43;;;;;;;0.80;0.60;;;12.50;99.90;;;;;;4892121;29;20017;-71
2022/04/25 06:40:09;;;;;;;;;;;12.40;99.90;;;;;;4892287;29;20700;-71
2022/04/25 06:42:35;;;;;;;0.68;0.68;;;12.40;99.90;;;;;;4894762;29;19922;-71
2022/04/25 06:45:00;;;;;;;1.13;0.47;;;12.40;99.90;;;;;;4889071;29;20039;-71
2022/04/25 06:47:26;;;;;;;0.93;0.90;;;12.40;99.90;;;;;;4900521;29;20032;-71
2022/04/25 06:49:54;;;;;;;0.83;0.73;;;12.40;99.90;;;;;;4887998;29;20059;-71
2022/04/25 06:52:20;;;;;;;2.28;0.90;;;12.40;99.90;;;;;;4895640;29;20324;-71
2022/04/25 06:54:46;;;;;;;1.85;0.85;;;12.60;99.90;;;;;;4893463;29;20935;-72
2022/04/25 06:57:12;;;;;;;0.82;0.82;;;12.60;99.90;;;;;;4886983;29;20028;-71
2022/04/25 06:59:38;;;;;;;1.15;1.00;;;12.70;99.90;;;;;;4897074;29;20036;-71
2022/04/25 07:02:04;;;;;;;0.73;0.70;;;13.20;99.90;;;;;;4890887;29;20418;-71
2022/04/25 07:04:30;;;;;;;0.77;0.77;;;14.60;99.90;;;;;;4897660;29;20319;-71
2022/04/25 07:06:55;;;;;;;2.00;0.60;;;15.90;99.90;;;;;;4888543;29;20028;-72
2022/04/25 07:09:21;;;;;;;0.90;0.90;;;17.00;99.90;;;;;;4899380;29;20028;-72
2022/04/25 07:11:48;;;;;;;2.17;0.75;;;17.50;98.70;;;;;;4890749;29;20028;-72
2022/04/25 07:14:15;;;;;;;1.20;0.90;;;18.80;96.90;;;;;;4897022;29;20024;-72
2022/04/25 07:16:44;;;;;;;1.95;0.80;;;20.90;92.10;;;;;;4889740;29;20545;-72
2022/04/25 07:19:15;;;;;;;1.65;0.70;;;23.10;82.60;;;;;;4889874;29;20035;-72
2022/04/25 07:29:54;;;;;;;1.00;1.00;;;21.70;72.60;;;;;;4884825;29;20083;-72
2022/04/25 07:32:23;;;;;;;1.35;0.93;;;21.50;74.70;;;;;;4889465;29;20434;-72
2022/04/25 07:34:51;;;;;;;1.17;0.75;;;21.80;73.20;;;;;;4889374;29;20183;-72
2022/04/25 07:37:18;;;;;;;2.40;1.20;;;21.10;74.80;;;;;;4894049;29;20076;-72
2022/04/25 07:39:45;;;;;;;1.35;1.10;;;21.00;75.60;;;;;;4891998;29;20123;-72
2022/04/25 07:42:15;;;;;;;1.25;1.00;;;20.90;75.80;;;;;;4888412;29;20648;-72
2022/04/25 07:44:41;;;;;;;2.17;1.20;;;20.80;76.20;;;;;;4891733;29;20016;-72
2022/04/25 07:47:07;;;;;;;;;;;21.00;75.70;;;;;;4885872;29;20631;-72
2022/04/25 07:49:33;;;;;;;1.23;1.20;;;21.90;74.30;;;;;;4891947;29;20431;-72
2022/04/25 07:51:59;;;;;;;0.90;0.90;;;22.80;69.90;;;;;;4890690;29;20024;-72
2022/04/25 07:54:26;;;;;;;1.80;1.33;;;23.50;70.20;;;;;;4892763;29;20029;-72
2022/04/25 07:56:55;;;;;;;4.28;1.58;;;24.00;68.00;;;;;;4889555;29;20043;-72
2022/04/25 07:59:21;;;;;;;1.52;1.30;;;24.50;67.00;;;;;;4893554;29;20024;-72
2022/04/25 08:01:46;;;;;;;;;;;25.00;63.90;;;;;;4889985;29;20474;-72
2022/04/25 08:04:13;;;;;;;1.90;1.60;;;25.00;62.40;;;;;;4888766;29;19916;-72
2022/04/25 08:06:40;;;;;;;1.27;1.10;;;23.80;63.30;;;;;;4895882;29;20469;-72
2022/04/25 08:09:06;;;;;;;1.48;1.38;;;22.10;66.90;;;;;;4916769;29;20402;-71
2022/04/25 08:11:32;;;;;;;4.50;1.40;;;20.80;70.50;;;;;;4889970;29;20043;-71
2022/04/25 08:19:31;;;;;;;1.10;1.00;;;18.50;80.80;;;;;;4893119;29;20052;-72
2022/04/25 08:21:58;;;;;;;4.07;2.33;;;18.40;81.70;;;;;;4889687;29;20024;-72
2022/04/25 08:24:24;;;;;;;1.77;1.50;;;18.50;83.70;;;;;;4892654;29;20028;-72
2022/04/25 08:26:49;;;;;;;3.42;1.73;;;19.10;82.30;;;;;;4888566;29;20036;-72
2022/04/25 08:29:15;;;;;;;2.05;1.10;;;19.60;80.20;;;;;;4887012;29;20043;-72
2022/04/25 08:31:41;;;;;;;1.25;1.13;;;19.70;78.90;;;;;;4888292;29;20024;-72
2022/04/25 08:34:09;;;;;;;1.42;1.10;;;19.60;78.10;;;;;;4892286;29;20718;-72
2022/04/25 08:36:35;;;;;;;1.63;1.40;;;19.30;78.80;;;;;;4894957;29;20028;-72
2022/04/25 08:39:03;;;;;;;2.63;1.30;;;19.10;80.00;;;;;;4882257;29;20047;-72
2022/04/25 08:41:43;;;;;;;4.75;3.08;;;19.00;79.80;;;;;;4890938;29;20028;-72
2022/04/25 08:44:10;;;;;;;1.88;1.42;;;19.40;79.00;;;;;;4885974;29;20093;-72
2022/04/25 08:46:36;;;;;;;1.30;1.20;;;20.40;77.80;;;;;;4893433;29;20020;-72
2022/04/25 08:49:05;;;;;;;;;;;21.80;74.40;;;;;;4903138;29;20035;-72
2022/04/25 08:51:37;;;;;;;1.20;1.10;;;23.00;69.20;;;;;;4888599;29;19907;-72
2022/04/25 08:54:08;;;;;;;1.13;1.02;;;23.30;67.40;;;;;;4888335;29;20032;-72
2022/04/25 08:56:37;;;;;;;1.25;1.15;;;23.00;66.10;;;;;;4897411;29;20169;-72
2022/04/25 08:59:06;;;;;;;1.58;1.15;;;22.70;67.80;;;;;;4893681;29;20530;-72
2022/04/25 09:01:33;;;;;;;1.63;1.20;;;23.00;68.30;;;;;;4886947;29;20020;-72
2022/04/25 09:04:02;;;;;;;1.50;1.10;;;23.20;67.70;;;;;;4888679;29;20029;-73
2022/04/25 09:06:28;;;;;;;1.30;1.20;;;23.70;65.80;;;;;;4889199;29;20021;-73
2022/04/25 09:08:54;;;;;;;1.27;1.17;;;23.90;64.60;;;;;;4886573;29;20430;-72
2022/04/25 09:14:05;;;;;;;1.10;1.00;;;22.00;67.50;;;;;;4890781;29;19918;-72
2022/04/25 09:16:32;;;;;;;2.00;1.17;;;20.50;71.30;;;;;;4896393;29;20028;-73
2022/04/25 09:18:59;;;;;;;1.10;1.00;;;19.70;74.50;;;;;;4889318;29;20410;-72
2022/04/25 09:21:25;;;;;;;2.60;1.20;;;19.40;76.30;;;;;;4889880;29;20402;-72
2022/04/25 09:23:52;;;;;;;1.40;1.30;;;19.10;77.40;;;;;;4889816;29;20032;-72
2022/04/25 09:26:21;;;;;;;;;;;19.10;76.40;;;;;;4889904;29;20037;-72
2022/04/25 09:28:55;;;;;;;1.65;1.55;;;18.60;77.50;;;;;;4894558;29;19918;-71
2022/04/25 09:31:22;;;;;;;1.45;1.30;;;18.40;78.60;;;;;;4903031;29;20029;-71
2022/04/25 09:33:49;;;;;;;1.40;1.25;;;18.10;79.40;;;;;;4897081;29;20021;-71
2022/04/25 09:36:15;;;;;;;;;;;18.00;80.30;;;;;;4909716;29;20021;-72
2022/04/25 09:38:42;;;;;;;2.25;0.90;;;17.80;80.70;;;;;;4889351;29;19911;-71
2022/04/25 09:41:17;;;;;;;3.15;1.15;;;17.70;81.80;;;;;;4901207;29;20031;-71
2022/04/25 09:43:47;;;;;;;0.90;0.90;;;17.00;84.60;;;;;;4886890;29;20042;-71
2022/04/25 09:46:17;;;;;;;1.67;1.10;;;16.90;86.80;;;;;;4884406;29;20505;-71
2022/04/25 09:49:03;;;;;;;1.00;0.93;;;17.10;86.50;;;;;;4888404;29;20078;-72
2022/04/25 09:51:30;;;;;;;1.20;1.00;;;17.40;85.50;;;;;;4889099;29;20036;-71
2022/04/25 09:53:57;;;;;;;1.27;1.13;;;17.90;83.40;;;;;;4890880;29;20068;-71
2022/04/25 09:56:26;;;;;;;1.30;1.20;;;18.30;82.10;;;;;;4889943;29;20588;-71
2022/04/25 09:59:06;;;;;;;3.30;1.20;;;18.60;81.60;;;;;;4889592;29;20023;-71
2022/04/25 10:01:36;;;;;;;1.10;1.08;;;19.30;79.20;;;;;;4888281;29;20059;-71
2022/04/25 10:04:03;;;;;;;1.55;1.15;;;19.80;78.00;;;;;;4884754;29;20039;-71
2022/04/25 10:06:34;;;;;;;1.63;1.52;;;20.00;76.80;;;;;;4887802;29;20029;-71
2022/04/25 10:09:08;;;;;;;1.40;1.20;;;19.80;75.80;;;;;;4882137;29;20139;-72
2022/04/25 10:11:40;;;;;;;1.58;1.48;;;19.40;77.50;;;;;;4889594;29;20099;-72
2022/04/25 10:14:07;;;;;;;1.92;1.80;;;19.10;77.60;;;;;;4886956;29;20031;-71
2022/04/25 10:16:36;;;;;;;2.45;1.80;;;18.90;78.10;;;;;;4896436;29;20139;-71
2022/04/25 10:19:03;;;;;;;3.03;1.70;;;18.60;81.50;;;;;;4885436;29;20028;-72
2022/04/25 10:21:31;;;;;;;1.85;1.75;;;18.50;81.10;;;;;;4887436;29;20029;-71
2022/04/25 10:23:57;;;;;;;2.00;1.60;;;18.40;81.50;;;;;;4885289;29;20079;-74
2022/04/25 10:26:29;;;;;;;2.00;1.77;;;18.80;81.50;;;;;;4891908;29;20086;-73
2022/04/25 10:29:07;;;;;;;2.67;1.85;;;19.80;77.50;;;;;;4896641;29;20024;-73
2022/04/25 10:31:41;;;;;;;1.80;1.70;;;20.30;76.40;;;;;;4891090;29;20612;-74
2022/04/25 10:34:10;;;;;;;3.28;1.80;;;21.00;74.70;;;;;;4893455;29;20032;-74
2022/04/25 10:36:44;;;;;;;1.88;1.70;;;21.50;71.60;;;;;;4893864;29;20111;-74
2022/04/25 10:39:24;;;;;;;1.92;1.83;;;21.80;69.40;;;;;;4886886;29;20048;-73
2022/04/25 10:44:37;;;;;;;1.88;1.77;;;22.60;66.40;;;;;;4893361;29;20197;-73
2022/04/25 10:47:05;;;;;;;;;;;23.00;65.30;;;;;;4894933;29;20131;-73
2022/04/25 10:49:34;;;;;;;2.42;2.00;;;23.40;63.90;;;;;;4892510;29;19954;-72
2022/04/25 10:52:03;;;;;;;4.32;2.30;;;22.90;62.30;;;;;;4892555;29;20128;-73
2022/04/25 10:54:47;;;;;;;3.90;2.03;;;22.40;65.00;;;;;;4892903;29;20052;-73
2022/04/25 10:57:15;;;;;;;2.40;2.10;;;21.90;66.40;;;;;;4893505;29;20398;-73
2022/04/25 10:59:42;;;;;;;2.38;2.17;;;21.20;67.10;;;;;;4907484;29;20016;-73
2022/04/25 11:02:29;;;;;;;2.45;2.20;;;21.00;68.30;;;;;;4885136;29;20028;-73
2022/04/25 11:05:10;;;;;;;2.00;1.80;;;20.70;68.40;;;;;;4891813;29;20056;-73
2022/04/25 11:07:37;;;;;;;2.97;2.20;;;20.60;70.60;;;;;;4890064;29;20414;-72
2022/04/25 11:10:07;;;;;;;2.38;2.00;;;20.70;70.60;;;;;;4889480;29;20095;-73
2022/04/25 11:12:59;;;;;;;3.53;2.10;;;20.70;70.20;;;;;;4888862;29;20111;-71
2022/04/25 11:15:48;;;;;;;2.40;2.20;;;20.80;69.20;;;;;;4889525;29;20036;-71
2022/04/25 11:18:38;;;;;;;2.33;2.13;;;20.90;70.10;;;;;;4887375;29;20056;-72
2022/04/25 11:21:08;;;;;;;2.28;2.03;;;20.70;68.50;;;;;;4887334;29;20123;-72
2022/04/25 11:23:35;;;;;;;2.13;1.73;;;20.40;66.80;;;;;;4894504;29;20075;-72
2022/04/25 11:26:04;;;;;;;2.90;2.50;;;20.30;68.80;;;;;;4885452;29;20031;-72
2022/04/25 11:28:33;;;;;;;2.85;2.05;;;20.20;67.10;;;;;;4898566;29;20032;-72
2022/04/25 11:31:14;;;;;;;2.83;2.25;;;20.10;68.00;;;;;;4898100;29;20037;-72
2022/04/25 11:33:47;;;;;;;4.22;2.50;;;19.90;66.80;;;;;;4895014;29;20053;-71
2022/04/25 11:36:13;;;;;;;2.92;2.50;;;19.50;67.20;;;;;;4894612;29;20017;-72
2022/04/25 11:41:24;;;;;;;4.15;2.50;;;19.30;69.80;;;;;;4887501;29;19914;-72
2022/04/25 11:43:51;;;;;;;4.03;2.30;;;19.30;70.70;;;;;;4898594;29;20056;-72
2022/04/25 11:46:17;;;;;;;2.30;2.03;;;19.40;70.20;;;;;;4886609;29;20756;-72
2022/04/25 11:48:50;;;;;;;3.17;2.53;;;19.60;69.80;;;;;;4894787;29;20117;-72
2022/04/25 11:51:43;;;;;;;3.78;3.05;;;19.50;68.40;;;;;;4886680;29;20040;-72
2022/04/25 11:54:10;;;;;;;2.35;2.15;;;19.10;68.80;;;;;;4881457;29;20490;-73
2022/04/25 11:56:41;;;;;;;2.80;2.45;;;19.10;69.70;;;;;;4893144;29;20080;-73
2022/04/25 11:59:11;;;;;;;2.72;2.20;;;19.10;69.80;;;;;;4888147;29;20028;-72
2022/04/25 12:01:49;;;;;;;2.70;2.47;;;19.30;70.20;;;;;;4921621;29;20032;-72
2022/04/25 12:04:16;;;;;;;3.08;2.60;;;19.20;69.20;;;;;;4884437;29;20028;-72
2022/04/25 12:07:06;;;;;;;3.08;2.30;;;19.10;72.50;;;;;;4890168;29;20031;-73
2022/04/25 12:15:34;;;;;;;2.80;2.53;;;19.50;70.10;;;;;;4890767;29;20028;-72
2022/04/25 12:18:22;;;;;;;4.05;2.60;;;19.60;70.20;;;;;;4893403;29;20086;-72
2022/04/25 12:20:49;;;;;;;3.45;2.83;;;19.60;70.50;;;;;;4891370;29;20063;-72
2022/04/25 12:23:27;;;;;;;3.47;2.80;;;19.60;68.90;;;;;;4890510;29;20032;-72
2022/04/25 12:25:55;;;;;;;3.70;2.60;;;19.40;69.10;;;;;;4886974;29;20033;-72
2022/04/25 12:28:23;;;;;;;2.85;2.20;;;19.30;70.30;;;;;;4894321;29;20039;-72
2022/04/25 12:30:57;;;;;;;2.40;2.20;;;19.00;72.00;;;;;;4888564;29;20045;-71
2022/04/25 12:33:36;;;;;;;5.20;2.67;;;18.80;74.30;;;;;;4888425;29;20028;-72
2022/04/25 12:36:25;;;;;;;3.67;2.53;;;18.60;75.20;;;;;;4897478;29;20024;-71
2022/04/25 12:38:54;;;;;;;3.35;2.33;;;18.50;75.20;;;;;;4892593;29;20020;-72
2022/04/25 12:41:22;;;;;;;3.00;2.50;;;18.40;75.70;;;;;;4887366;29;20052;-72
2022/04/25 12:43:49;;;;;;;3.28;2.58;;;18.30;75.90;;;;;;4896359;29;20099;-71
2022/04/25 12:46:18;;;;;;;3.70;2.55;;;18.10;76.50;;;;;;4902566;29;20119;-71
2022/04/25 12:48:59;;;;;;;2.78;2.40;;;17.80;77.40;;;;;;4898055;29;20482;-70
2022/04/25 12:51:36;;;;;;;2.50;2.30;;;17.50;78.80;;;;;;4888090;29;20063;-70
2022/04/25 12:54:04;;;;;;;2.92;2.10;;;17.10;78.00;;;;;;4886558;29;20027;-70
2022/04/25 12:56:33;;;;;;;2.40;1.80;;;16.80;78.70;;;;;;4888295;29;20091;-70
2022/04/25 12:59:00;;;;;;;2.47;1.92;;;16.60;80.30;;;;;;4889348;29;20123;-70
2022/04/25 13:01:35;;;;;;;2.03;1.88;;;16.50;79.80;;;;;;4886026;29;20036;-70
2022/04/25 13:04:05;;;;;;;2.88;2.33;;;16.40;79.70;;;;;;4890307;29;20035;-71
2022/04/25 13:06:31;;;;;;;2.30;2.10;;;16.30;79.20;;;;;;4888023;29;20485;-70
2022/04/25 13:08:57;;;;;;;2.65;2.30;;;16.30;79.20;;;;;;4886806;29;20040;-70
2022/04/25 13:11:23;;;;;;;3.10;2.57;;;16.40;79.50;;;;;;4890422;29;20493;-70
2022/04/25 13:13:50;;;;;;;2.90;2.60;;;16.50;79.20;;;;;;4889090;29;20036;-70
2022/04/25 13:16:17;;;;;;;3.50;3.00;;;16.90;78.00;;;;;;4886237;29;20031;-70
2022/04/25 13:18:43;;;;;;;2.83;2.60;;;17.20;76.40;;;;;;4894336;29;20032;-70
2022/04/25 13:21:12;;;;;;;3.42;2.63;;;17.40;76.10;;;;;;4886940;29;20059;-71
2022/04/25 13:23:38;;;;;;;3.30;2.70;;;17.60;74.80;;;;;;4890789;29;20076;-70
2022/04/25 13:26:03;;;;;;;2.80;2.37;;;17.70;74.10;;;;;;4890044;29;20028;-70
2022/04/25 13:28:29;;;;;;;4.72;3.40;;;17.80;75.20;;;;;;4892438;29;20036;-70
2022/04/25 13:30:55;;;;;;;4.50;3.50;;;17.80;74.40;;;;;;4888065;29;20029;-70
2022/04/25 13:33:20;;;;;;;5.40;3.38;;;17.80;73.50;;;;;;4888095;29;21087;-71
2022/04/25 13:35:46;;;;;;;4.88;3.63;;;17.80;74.60;;;;;;4887548;29;20024;-70